Time;durP1;ratioP1;P1;durP2;ratioP2;P2;SDS_P1;SDS_P2;PMS_P1;PMS_P2;Temp;Humidity;BMP_temperature;BMP_pressure;BME280_temperature;BME280_humidity;BME280_pressure;Samples;Min_cycle;Max_cycle;Signal;HPM_P1;HPM_P2
2023/08/04 00:01:16;;;;;;;8.95;8.25;;;;;;;27.94;62.71;97681.28;5111551;28;20186;-56
2023/08/04 00:03:42;;;;;;;8.98;8.18;;;;;;;28.06;63.11;97700.72;5111559;28;20187;-56
2023/08/04 00:06:09;;;;;;;9.02;8.23;;;;;;;27.97;63.20;97698.63;5111313;28;20810;-56
2023/08/04 00:08:34;;;;;;;8.75;7.88;;;;;;;27.77;63.18;97669.75;5111398;28;20198;-56
2023/08/04 00:10:59;;;;;;;8.30;7.60;;;;;;;27.91;63.26;97686.25;5111468;28;20554;-56
2023/08/04 00:13:25;;;;;;;8.60;7.80;;;;;;;27.84;63.82;97675.75;5111373;28;20681;-57
2023/08/04 00:15:50;;;;;;;8.93;7.93;;;;;;;27.79;63.67;97666.84;5111284;28;20440;-55
2023/08/04 00:18:16;;;;;;;8.10;7.40;;;;;;;27.88;63.94;97692.06;5090711;28;20220;-56
2023/08/04 00:20:41;;;;;;;8.07;7.43;;;;;;;27.62;64.01;97663.22;5090804;28;20186;-56
2023/08/04 00:23:06;;;;;;;8.90;8.10;;;;;;;27.83;65.34;97699.91;5070430;28;20203;-55
2023/08/04 00:25:32;;;;;;;8.70;7.90;;;;;;;27.41;66.84;97667.22;5083761;28;20184;-56
2023/08/04 00:27:57;;;;;;;9.07;8.18;;;;;;;27.37;67.15;97666.09;5090623;28;20650;-56
2023/08/04 00:30:23;;;;;;;11.70;7.85;;;;;;;27.47;68.05;97695.56;5090630;28;20259;-57
2023/08/04 00:32:48;;;;;;;9.52;8.60;;;;;;;27.48;68.12;97680.44;5090539;28;20746;-56
2023/08/04 00:35:13;;;;;;;9.38;8.57;;;;;;;27.62;67.60;97706.56;5090577;28;20701;-57
2023/08/04 00:37:39;;;;;;;12.48;8.07;;;;;;;27.61;67.81;97699.63;5090478;28;20269;-56
2023/08/04 00:40:05;;;;;;;9.80;8.68;;;;;;;27.52;68.63;97694.88;5090516;28;20188;-56
2023/08/04 00:42:31;;;;;;;9.40;8.50;;;;;;;27.41;68.83;97675.22;5090483;28;20184;-56
2023/08/04 00:44:56;;;;;;;9.25;8.45;;;;;;;27.41;69.02;97675.22;5090306;28;20195;-57
2023/08/04 00:47:24;;;;;;;10.93;8.40;;;;;;;27.65;68.95;97702.63;5090350;28;20190;-57
2023/08/04 00:49:51;;;;;;;9.30;8.25;;;;;;;27.40;68.90;97667.50;5105399;28;20187;-57
2023/08/04 00:52:17;;;;;;;9.48;8.55;;;;;;;27.45;69.42;97692.31;5110695;28;20172;-57
2023/08/04 00:54:45;;;;;;;12.98;8.73;;;;;;;27.33;69.76;97672.06;5112106;28;20206;-56
2023/08/04 00:57:11;;;;;;;9.30;8.40;;;;;;;27.33;70.20;97688.84;5112819;28;20182;-57
2023/08/04 00:59:36;;;;;;;9.45;8.55;;;;;;;27.46;70.32;97704.56;5112997;28;20171;-57
2023/08/04 01:02:02;;;;;;;9.27;8.38;;;;;;;27.40;70.52;97683.44;5113200;28;20575;-56
2023/08/04 01:04:28;;;;;;;9.65;8.75;;;;;;;27.33;69.93;97672.91;5112983;28;20167;-57
2023/08/04 01:06:59;;;;;;;10.07;8.18;;;;;;;27.46;70.22;97704.56;5112676;28;20219;-57
2023/08/04 01:09:25;;;;;;;8.93;8.02;;;;;;;27.57;69.63;97695.03;5112553;28;20559;-57
2023/08/04 01:12:10;;;;;;;9.07;8.27;;;;;;;27.26;70.93;97687.31;5112776;28;20236;-57
2023/08/04 01:14:41;;;;;;;10.43;9.50;;;;;;;27.23;70.37;97680.59;5112915;28;20175;-57
2023/08/04 01:17:29;;;;;;;9.15;8.38;;;;;;;27.18;71.76;97707.03;5112748;28;20259;-56
2023/08/04 01:19:56;;;;;;;10.63;8.85;;;;;;;26.99;72.05;97684.19;5130535;27;20551;-56
2023/08/04 01:22:22;;;;;;;9.25;8.35;;;;;;;27.02;73.11;97712.16;5130578;27;20239;-57
2023/08/04 01:24:49;;;;;;;9.13;8.32;;;;;;;26.74;73.70;97683.53;5130475;27;20261;-57
2023/08/04 01:27:18;;;;;;;10.02;8.63;;;;;;;26.87;73.76;97709.91;5130584;27;20189;-57
2023/08/04 01:29:45;;;;;;;9.85;8.95;;;;;;;26.91;74.04;97711.09;5130387;27;20206;-57
2023/08/04 01:32:11;;;;;;;9.50;8.40;;;;;;;26.77;73.86;97695.53;5130376;27;20182;-56
2023/08/04 01:34:37;;;;;;;9.70;8.80;;;;;;;26.86;74.00;97708.28;5130307;27;20174;-57
2023/08/04 01:37:03;;;;;;;9.45;8.45;;;;;;;26.98;73.51;97722.41;5129877;27;20178;-56
2023/08/04 01:39:28;;;;;;;11.20;8.35;;;;;;;27.17;71.92;97731.97;5130547;27;20231;-56
2023/08/04 01:41:53;;;;;;;12.48;9.07;;;;;;;27.22;71.45;97726.81;5130260;27;20178;-56
2023/08/04 01:44:19;;;;;;;8.90;8.07;;;;;;;27.13;71.99;97728.16;5130170;27;20186;-56
2023/08/04 01:46:44;;;;;;;13.68;8.98;;;;;;;26.97;73.22;97731.41;5130090;27;20722;-56
2023/08/04 01:49:09;;;;;;;8.93;8.02;;;;;;;26.41;75.31;97700.88;5130133;27;20174;-56
2023/08/04 01:51:36;;;;;;;10.63;8.70;;;;;;;26.09;76.96;97700.19;5129971;27;20251;-57
2023/08/04 01:54:01;;;;;;;9.48;8.57;;;;;;;26.34;75.94;97716.03;5130059;27;20209;-56
2023/08/04 01:56:27;;;;;;;9.93;8.60;;;;;;;26.40;75.67;97717.78;5127353;27;20273;-56
2023/08/04 01:58:52;;;;;;;9.85;8.32;;;;;;;26.30;76.91;97734.22;5111830;28;20174;-57
2023/08/04 02:01:19;;;;;;;9.85;8.30;;;;;;;26.18;76.98;97720.06;5111836;28;20559;-57
2023/08/04 02:03:45;;;;;;;11.02;8.60;;;;;;;26.17;77.14;97722.94;5109043;28;20636;-56
2023/08/04 02:06:10;;;;;;;9.55;8.48;;;;;;;26.03;77.50;97706.38;5109383;28;20199;-57
2023/08/04 02:08:35;;;;;;;14.13;8.90;;;;;;;26.22;76.87;97718.59;5109241;28;20191;-57
2023/08/04 02:11:01;;;;;;;9.05;8.25;;;;;;;26.29;76.95;97735.25;5109368;28;20361;-56
2023/08/04 02:13:27;;;;;;;8.75;7.90;;;;;;;26.24;76.00;97697.97;5109147;28;20187;-57
2023/08/04 02:15:52;;;;;;;10.95;8.95;;;;;;;26.44;75.87;97735.72;5109038;28;20206;-57
2023/08/04 02:18:17;;;;;;;10.07;8.27;;;;;;;26.16;77.03;97732.75;5109013;28;20696;-57
2023/08/04 02:20:43;;;;;;;9.48;8.68;;;;;;;25.87;78.05;97706.88;5109060;28;20238;-56
2023/08/04 02:23:08;;;;;;;11.25;8.82;;;;;;;26.00;77.51;97721.91;5108975;28;20217;-56
2023/08/04 02:25:35;;;;;;;10.80;9.10;;;;;;;26.06;77.47;97736.94;5088394;28;20184;-57
2023/08/04 02:28:01;;;;;;;9.30;8.38;;;;;;;26.02;77.96;97741.03;5088618;28;20679;-57
2023/08/04 02:30:26;;;;;;;9.60;8.60;;;;;;;25.80;79.24;97737.13;5088567;28;20274;-56
2023/08/04 02:32:51;;;;;;;9.00;8.15;;;;;;;25.60;80.95;97752.38;5088553;28;20337;-57
2023/08/04 02:35:17;;;;;;;10.35;9.30;;;;;;;25.43;81.24;97725.59;5088407;28;20275;-57
2023/08/04 02:37:42;;;;;;;10.00;9.13;;;;;;;25.55;82.11;97757.50;5088467;28;20591;-56
2023/08/04 02:40:08;;;;;;;10.60;9.00;;;;;;;25.42;82.58;97750.47;5088470;28;20193;-57
2023/08/04 02:42:33;;;;;;;9.75;8.80;;;;;;;25.42;81.72;97731.13;5088381;28;20662;-56
2023/08/04 02:44:59;;;;;;;11.63;8.82;;;;;;;25.39;82.17;97729.72;5088450;28;20231;-56
2023/08/04 02:47:24;;;;;;;10.18;9.18;;;;;;;25.42;82.33;97745.16;5088385;28;20179;-56
2023/08/04 02:49:50;;;;;;;9.68;8.70;;;;;;;25.56;82.06;97753.84;5090589;28;20195;-56
2023/08/04 02:52:16;;;;;;;10.77;8.20;;;;;;;25.53;81.40;97736.53;5092887;28;20175;-56
2023/08/04 02:54:42;;;;;;;11.07;9.27;;;;;;;25.75;80.64;97756.34;5092466;28;20259;-56
2023/08/04 02:57:07;;;;;;;10.60;8.98;;;;;;;25.73;79.44;97734.53;5092588;28;20402;-56
2023/08/04 02:59:33;;;;;;;10.07;8.95;;;;;;;25.74;80.00;97748.59;5092518;28;20654;-56
2023/08/04 03:01:58;;;;;;;10.82;8.35;;;;;;;25.49;81.21;97727.38;5094169;28;20705;-57
2023/08/04 03:04:23;;;;;;;9.43;8.45;;;;;;;25.64;80.57;97732.34;5115571;28;20174;-57
2023/08/04 03:06:49;;;;;;;11.18;9.18;;;;;;;25.90;80.30;97769.31;5115227;28;20680;-56
2023/08/04 03:09:14;;;;;;;9.27;8.38;;;;;;;25.78;80.56;97761.19;5114822;28;20183;-57
2023/08/04 03:11:40;;;;;;;10.25;8.82;;;;;;;25.51;81.54;97732.47;5115175;28;20168;-56
2023/08/04 03:14:05;;;;;;;9.77;8.75;;;;;;;25.50;81.58;97742.28;5115048;28;20171;-56
2023/08/04 03:16:31;;;;;;;9.43;8.52;;;;;;;25.47;82.49;97755.94;5114695;28;20209;-57
2023/08/04 03:18:56;;;;;;;10.60;9.05;;;;;;;25.51;83.02;97774.84;5114858;28;20206;-57
2023/08/04 03:21:21;;;;;;;10.05;9.00;;;;;;;25.30;83.00;97743.44;5114949;28;20640;-56
2023/08/04 03:23:47;;;;;;;9.77;8.68;;;;;;;25.55;82.89;97774.22;5114925;28;20167;-57
2023/08/04 03:26:12;;;;;;;10.27;8.45;;;;;;;25.61;82.08;97777.84;5114836;28;20716;-56
2023/08/04 03:28:38;;;;;;;11.60;10.48;;;;;;;25.62;82.13;97782.94;5112070;28;20183;-56
2023/08/04 03:31:03;;;;;;;9.75;8.80;;;;;;;25.54;82.33;97755.91;5112217;28;20229;-57
2023/08/04 03:33:28;;;;;;;10.27;9.32;;;;;;;25.87;81.26;97789.06;5112178;28;20270;-57
2023/08/04 03:35:54;;;;;;;11.57;8.75;;;;;;;25.80;80.17;97759.16;5112084;28;20231;-57
2023/08/04 03:38:19;;;;;;;13.90;9.52;;;;;;;25.92;80.01;97778.66;5112014;28;20221;-57
2023/08/04 03:40:45;;;;;;;10.30;9.05;;;;;;;26.15;79.61;97789.47;5112056;28;20659;-57
2023/08/04 03:43:10;;;;;;;8.88;7.85;;;;;;;25.98;79.99;97774.31;5112000;28;20183;-56
2023/08/04 03:45:35;;;;;;;9.55;8.68;;;;;;;25.94;80.41;97770.50;5111895;28;20219;-56
2023/08/04 03:48:01;;;;;;;9.82;8.75;;;;;;;25.93;79.88;97760.91;5112167;28;20187;-56
2023/08/04 03:50:26;;;;;;;10.02;8.95;;;;;;;26.11;79.29;97785.63;5111914;28;20339;-56
2023/08/04 03:52:52;;;;;;;8.82;8.02;;;;;;;26.18;78.59;97783.72;5111839;28;20179;-56
2023/08/04 03:55:17;;;;;;;9.93;8.93;;;;;;;26.32;78.80;97811.78;5111652;28;20226;-56
2023/08/04 03:57:43;;;;;;;10.05;9.15;;;;;;;26.41;77.78;97796.38;5111775;28;20201;-56
2023/08/04 04:00:09;;;;;;;11.20;9.05;;;;;;;26.49;76.50;97798.75;5112857;28;20179;-56
2023/08/04 04:02:35;;;;;;;12.98;10.50;;;;;;;26.61;75.13;97795.19;5114146;28;20179;-56
2023/08/04 04:05:00;;;;;;;9.02;8.15;;;;;;;26.66;75.00;97805.91;5113820;28;20198;-56
2023/08/04 04:07:26;;;;;;;10.50;9.05;;;;;;;26.87;74.61;97821.41;5114014;28;20194;-56
2023/08/04 04:09:51;;;;;;;10.38;9.18;;;;;;;26.99;74.14;97827.59;5114003;27;20171;-56
2023/08/04 04:12:17;;;;;;;9.90;8.90;;;;;;;26.93;73.89;97804.59;5114266;28;20179;-56
2023/08/04 04:14:42;;;;;;;10.43;9.10;;;;;;;27.02;73.40;97818.38;5113817;28;20281;-56
2023/08/04 04:17:09;;;;;;;11.60;9.50;;;;;;;27.08;72.77;97818.31;5113846;27;20186;-56
2023/08/04 04:19:34;;;;;;;10.77;9.80;;;;;;;27.20;71.83;97813.91;5113783;28;20189;-56
2023/08/04 04:21:59;;;;;;;13.80;8.82;;;;;;;27.13;71.28;97791.91;5113718;28;20168;-56
2023/08/04 04:24:25;;;;;;;10.13;9.15;;;;;;;27.19;71.51;97809.63;5113786;28;20203;-56
2023/08/04 04:26:50;;;;;;;12.48;9.23;;;;;;;26.99;71.25;97792.28;5113722;28;20542;-56
2023/08/04 04:29:16;;;;;;;11.48;8.23;;;;;;;27.25;70.41;97824.69;5113696;28;20266;-56
2023/08/04 04:31:41;;;;;;;10.15;9.05;;;;;;;27.24;70.56;97828.34;5113556;28;20167;-56
2023/08/04 04:34:06;;;;;;;9.10;8.20;;;;;;;27.12;70.45;97816.81;5113788;27;20221;-56
2023/08/04 04:36:32;;;;;;;8.90;8.10;;;;;;;27.29;69.64;97831.16;5113129;28;20568;-56
2023/08/04 04:38:57;;;;;;;12.40;8.55;;;;;;;27.15;69.38;97800.44;5113495;28;20278;-56
2023/08/04 04:41:22;;;;;;;9.50;8.50;;;;;;;27.09;69.60;97808.47;5110700;28;20229;-56
2023/08/04 04:43:48;;;;;;;9.57;8.57;;;;;;;27.19;69.09;97814.94;5110822;28;20186;-56
2023/08/04 04:46:13;;;;;;;12.18;9.10;;;;;;;27.19;69.71;97828.22;5110750;28;20569;-56
2023/08/04 04:48:39;;;;;;;12.05;8.57;;;;;;;27.26;69.80;97836.09;5110829;28;21370;-57
2023/08/04 04:51:04;;;;;;;13.60;8.73;;;;;;;27.15;69.69;97805.75;5110713;28;20183;-57
2023/08/04 04:53:29;;;;;;;8.88;8.00;;;;;;;27.34;68.50;97820.66;5110578;28;20206;-57
2023/08/04 04:55:58;;;;;;;10.63;8.98;;;;;;;27.46;68.54;97831.34;5110491;28;20207;-56
2023/08/04 04:58:23;;;;;;;9.85;8.95;;;;;;;27.39;67.85;97807.50;5110748;28;20179;-57
2023/08/04 05:00:49;;;;;;;9.77;8.88;;;;;;;27.66;67.19;97842.50;5110404;28;20749;-55
2023/08/04 05:03:14;;;;;;;9.45;8.60;;;;;;;27.64;67.06;97844.59;5110464;28;20179;-55
2023/08/04 05:05:41;;;;;;;9.95;8.93;;;;;;;27.65;67.61;97847.00;5110448;28;20178;-55
2023/08/04 05:08:07;;;;;;;11.48;8.63;;;;;;;27.81;67.28;97854.38;5110326;28;20214;-55
2023/08/04 05:10:32;;;;;;;10.57;9.35;;;;;;;27.67;67.03;97836.16;5110277;28;20661;-55
2023/08/04 05:12:57;;;;;;;15.82;8.98;;;;;;;27.74;67.15;97843.00;5111122;28;20187;-55
2023/08/04 05:15:23;;;;;;;9.50;8.75;;;;;;;27.83;66.75;97849.66;5112661;28;20572;-55
2023/08/04 05:17:48;;;;;;;9.60;8.70;;;;;;;27.89;66.76;97859.38;5112573;28;20709;-55
2023/08/04 05:20:14;;;;;;;16.00;8.95;;;;;;;27.87;66.14;97852.66;5112393;28;20171;-55
2023/08/04 05:22:40;;;;;;;10.50;9.20;;;;;;;27.95;65.95;97857.66;5112600;28;20210;-56
2023/08/04 05:25:07;;;;;;;11.10;9.50;;;;;;;27.92;65.87;97837.63;5112485;28;20182;-56
2023/08/04 05:27:33;;;;;;;10.65;9.55;;;;;;;27.95;65.71;97818.59;5112381;28;20171;-56
2023/08/04 05:30:00;;;;;;;10.88;9.63;;;;;;;28.18;65.44;97831.09;5112674;28;20186;-56
2023/08/04 05:32:25;;;;;;;14.98;9.82;;;;;;;28.33;64.56;97834.91;5112349;28;20224;-56
2023/08/04 05:34:51;;;;;;;12.57;9.75;;;;;;;28.61;63.82;97861.69;5112259;27;20171;-56
2023/08/04 05:37:16;;;;;;;13.50;9.02;;;;;;;28.60;63.19;97829.97;5112097;28;20696;-56
2023/08/04 05:39:41;;;;;;;11.18;9.57;;;;;;;28.68;62.86;97833.09;5112248;28;20171;-56
2023/08/04 05:42:07;;;;;;;10.55;9.52;;;;;;;28.92;62.56;97868.50;5112207;28;20493;-56
2023/08/04 05:44:32;;;;;;;10.07;9.00;;;;;;;28.70;60.66;97835.53;5112400;28;20254;-56
2023/08/04 05:47:01;;;;;;;9.50;8.20;;;;;;;29.06;59.68;97868.06;5112130;28;20710;-56
2023/08/04 05:49:26;;;;;;;9.10;8.20;;;;;;;28.99;58.58;97831.94;5112065;28;20505;-56
2023/08/04 05:51:52;;;;;;;11.15;8.50;;;;;;;29.06;58.27;97835.25;5111980;28;20176;-56
2023/08/04 05:54:17;;;;;;;11.20;8.32;;;;;;;29.33;58.13;97863.00;5111955;28;20582;-56
2023/08/04 05:56:43;;;;;;;9.88;8.20;;;;;;;29.37;57.79;97864.13;5111802;28;20195;-57
2023/08/04 05:59:08;;;;;;;10.60;8.68;;;;;;;29.26;57.35;97831.16;5111867;28;20183;-56
2023/08/04 06:01:34;;;;;;;9.77;8.77;;;;;;;29.37;57.26;97845.47;5111761;28;20191;-56
2023/08/04 06:03:59;;;;;;;11.65;8.02;;;;;;;29.53;57.22;97863.41;5109444;28;20262;-56
2023/08/04 06:06:25;;;;;;;8.95;8.20;;;;;;;29.60;57.17;97870.25;5111734;28;20328;-56
2023/08/04 06:08:50;;;;;;;11.18;8.75;;;;;;;29.51;57.18;97834.28;5111776;28;20660;-56
2023/08/04 06:11:17;;;;;;;12.57;9.43;;;;;;;29.74;56.49;97860.88;5111710;28;20178;-56
2023/08/04 06:13:42;;;;;;;9.25;8.30;;;;;;;29.79;56.49;97847.63;5111651;28;20163;-56
2023/08/04 06:16:08;;;;;;;13.10;8.75;;;;;;;29.94;55.63;97871.13;5111717;28;20205;-56
2023/08/04 06:18:33;;;;;;;9.20;8.18;;;;;;;30.01;55.37;97871.75;5111588;28;20173;-56
2023/08/04 06:20:59;;;;;;;9.60;8.50;;;;;;;29.88;54.51;97843.53;5111646;28;20301;-56
2023/08/04 06:23:24;;;;;;;8.82;7.93;;;;;;;30.09;54.61;97874.88;5111572;28;20171;-56
2023/08/04 06:25:50;;;;;;;9.52;8.45;;;;;;;30.02;54.43;97842.16;5111465;28;20557;-56
2023/08/04 06:28:15;;;;;;;10.80;8.82;;;;;;;30.22;53.85;97874.59;5111214;28;20167;-56
2023/08/04 06:30:41;;;;;;;8.82;8.02;;;;;;;30.22;53.60;97874.59;5111372;28;20552;-56
2023/08/04 06:33:07;;;;;;;9.55;8.65;;;;;;;30.22;54.24;97874.59;5111765;28;20224;-58
2023/08/04 06:35:32;;;;;;;9.30;8.40;;;;;;;30.11;53.92;97840.78;5111250;28;20665;-57
2023/08/04 06:37:58;;;;;;;11.32;9.07;;;;;;;30.20;53.50;97844.63;5111515;28;20629;-56
2023/08/04 06:40:23;;;;;;;11.32;9.10;;;;;;;30.30;53.19;97854.66;5111307;28;20266;-56
2023/08/04 06:42:49;;;;;;;13.60;9.50;;;;;;;30.30;54.16;97860.00;5111080;28;20193;-56
2023/08/04 06:45:15;;;;;;;13.65;8.95;;;;;;;30.51;53.21;97875.31;5111295;28;20592;-56
2023/08/04 06:47:40;;;;;;;11.07;9.88;;;;;;;30.51;53.35;97867.28;5111303;28;20172;-57
2023/08/04 06:50:07;;;;;;;12.15;9.30;;;;;;;30.53;53.92;97866.00;5111238;28;20179;-56
2023/08/04 06:52:32;;;;;;;11.18;9.13;;;;;;;30.47;53.71;97845.59;5111106;28;20531;-56
2023/08/04 06:54:58;;;;;;;10.27;8.80;;;;;;;30.52;53.20;97850.19;5111115;28;20172;-56
2023/08/04 06:57:24;;;;;;;9.98;8.13;;;;;;;30.46;53.02;97838.66;5110844;28;20187;-56
2023/08/04 06:59:49;;;;;;;12.48;8.70;;;;;;;30.51;53.12;97841.41;5111433;28;20607;-56
2023/08/04 07:02:14;;;;;;;12.77;9.68;;;;;;;30.68;52.75;97846.75;5111162;28;20220;-56
2023/08/04 07:04:40;;;;;;;11.48;9.45;;;;;;;30.65;52.42;97834.69;5111256;28;20210;-55
2023/08/04 07:07:05;;;;;;;10.60;8.82;;;;;;;30.82;52.59;97864.84;5111113;28;20278;-55
2023/08/04 07:09:31;;;;;;;11.95;8.70;;;;;;;30.78;52.20;97841.53;5111076;28;20269;-55
2023/08/04 07:11:56;;;;;;;10.13;9.18;;;;;;;30.82;52.45;97843.47;5108192;28;20250;-56
2023/08/04 07:14:21;;;;;;;11.88;9.43;;;;;;;30.96;52.31;97858.06;5108463;28;20645;-57
2023/08/04 07:16:47;;;;;;;9.60;8.70;;;;;;;30.95;52.08;97856.47;5108404;28;20207;-56
2023/08/04 07:19:13;;;;;;;11.63;9.43;;;;;;;30.81;52.23;97838.38;5108336;28;20189;-56
2023/08/04 07:21:39;;;;;;;13.95;10.20;;;;;;;30.91;52.42;97847.34;5108425;28;20296;-56
2023/08/04 07:24:04;;;;;;;11.85;9.32;;;;;;;31.06;51.95;97866.25;5108331;28;20278;-56
2023/08/04 07:26:32;;;;;;;13.07;9.57;;;;;;;30.92;51.97;97830.25;5108376;28;20175;-56
2023/08/04 07:28:57;;;;;;;15.85;9.93;;;;;;;31.10;51.72;97859.34;5108322;28;20176;-57
2023/08/04 07:31:23;;;;;;;11.52;9.57;;;;;;;31.24;51.17;97868.63;5108364;28;20179;-57
2023/08/04 07:33:48;;;;;;;11.98;8.88;;;;;;;31.14;50.79;97836.38;5108277;28;20202;-55
2023/08/04 07:36:14;;;;;;;10.93;9.73;;;;;;;31.34;51.28;97863.41;5110865;28;20206;-58
2023/08/04 07:38:39;;;;;;;15.02;9.73;;;;;;;31.39;50.99;97860.81;5112023;28;20240;-55
2023/08/04 07:41:04;;;;;;;12.15;9.32;;;;;;;31.22;51.15;97838.69;5112114;28;20182;-55
2023/08/04 07:43:30;;;;;;;13.80;9.02;;;;;;;31.42;50.67;97862.97;5112061;28;20183;-55
2023/08/04 07:45:55;;;;;;;10.88;9.60;;;;;;;31.39;50.60;97847.44;5112101;28;20187;-55
2023/08/04 07:48:22;;;;;;;14.27;9.57;;;;;;;31.41;50.67;97845.31;5112136;28;20202;-56
2023/08/04 07:50:49;;;;;;;12.90;8.68;;;;;;;31.46;50.09;97844.53;5114390;28;20181;-56
2023/08/04 07:53:14;;;;;;;14.02;9.77;;;;;;;31.38;50.09;97829.78;5114372;28;20669;-56
2023/08/04 07:55:40;;;;;;;11.90;9.40;;;;;;;31.47;50.25;97835.50;5114278;28;20191;-56
2023/08/04 07:58:06;;;;;;;14.63;9.35;;;;;;;31.53;49.80;97824.56;5114350;28;20179;-56
2023/08/04 08:00:31;;;;;;;11.93;9.48;;;;;;;31.59;49.96;97820.09;5114492;28;20365;-56
2023/08/04 08:02:57;;;;;;;10.70;9.60;;;;;;;31.51;49.35;97821.34;5114161;27;20262;-56
2023/08/04 08:05:22;;;;;;;13.73;9.15;;;;;;;31.69;49.03;97845.09;5113745;28;20183;-56
2023/08/04 08:07:48;;;;;;;10.98;8.50;;;;;;;31.63;48.41;97830.03;5113884;28;20618;-56
2023/08/04 08:10:13;;;;;;;13.35;8.73;;;;;;;31.78;49.03;97842.78;5114066;28;20171;-56
2023/08/04 08:12:39;;;;;;;14.95;9.07;;;;;;;31.91;48.76;97845.88;5114071;28;20179;-56
2023/08/04 08:15:05;;;;;;;12.20;8.65;;;;;;;31.86;48.41;97837.78;5114237;28;20171;-56
2023/08/04 08:17:31;;;;;;;14.77;8.70;;;;;;;31.86;48.48;97843.13;5113927;28;20179;-56
2023/08/04 08:19:56;;;;;;;12.55;8.95;;;;;;;31.92;47.95;97844.81;5113658;28;20213;-57
2023/08/04 08:22:22;;;;;;;12.68;7.95;;;;;;;32.03;48.16;97845.69;5114138;28;20203;-57
2023/08/04 08:24:52;;;;;;;10.70;8.73;;;;;;;32.00;47.59;97825.59;5113833;28;20167;-57
2023/08/04 08:27:18;;;;;;;13.60;8.52;;;;;;;32.23;47.55;97846.66;5113498;28;20571;-57
2023/08/04 08:29:43;;;;;;;13.50;8.98;;;;;;;32.28;47.80;97857.44;5113737;28;20171;-57
2023/08/04 08:32:08;;;;;;;12.57;8.57;;;;;;;32.25;47.47;97841.91;5114148;28;20203;-57
2023/08/04 08:34:34;;;;;;;15.82;8.57;;;;;;;32.16;46.58;97829.19;5113570;28;20255;-57
2023/08/04 08:37:00;;;;;;;12.32;8.88;;;;;;;32.16;47.67;97830.00;5113570;28;20688;-57
2023/08/04 08:39:27;;;;;;;12.70;8.57;;;;;;;32.17;47.96;97820.91;5113623;28;20170;-57
2023/08/04 08:41:52;;;;;;;10.10;8.85;;;;;;;32.32;47.07;97826.44;5113576;28;20187;-57
2023/08/04 08:44:18;;;;;;;11.30;9.05;;;;;;;32.34;46.88;97826.19;5113575;28;20629;-56
2023/08/04 08:46:44;;;;;;;9.32;8.43;;;;;;;32.18;48.25;97811.81;5112277;28;20179;-56
2023/08/04 08:49:09;;;;;;;9.27;8.30;;;;;;;32.19;47.86;97815.31;5113361;28;20182;-55
2023/08/04 08:51:41;;;;;;;9.02;8.23;;;;;;;32.27;47.65;97815.66;5113373;28;20227;-56
2023/08/04 08:54:09;;;;;;;17.80;13.63;;;;;;;32.46;47.29;97835.63;5113064;28;20649;-56
2023/08/04 08:56:34;;;;;;;10.20;9.18;;;;;;;32.60;47.97;97833.31;5113128;28;20248;-57
2023/08/04 08:59:01;;;;;;;9.57;8.57;;;;;;;32.72;47.71;97824.00;5113246;28;20207;-56
2023/08/04 09:01:27;;;;;;;10.82;8.98;;;;;;;32.59;46.96;97797.66;5112833;28;20171;-56
2023/08/04 09:03:53;;;;;;;9.80;8.45;;;;;;;32.69;47.28;97807.66;5113020;28;20186;-56
2023/08/04 09:06:18;;;;;;;10.18;8.68;;;;;;;32.76;47.09;97814.38;5112903;28;20187;-57
2023/08/04 09:08:44;;;;;;;10.18;8.70;;;;;;;32.93;46.47;97820.38;5113043;28;20259;-57
2023/08/04 09:11:10;;;;;;;11.45;8.70;;;;;;;33.08;46.61;97809.72;5113043;28;20655;-57
2023/08/04 09:13:41;;;;;;;8.45;7.60;;;;;;;33.09;46.34;97807.84;5112675;28;20171;-57
2023/08/04 09:16:08;;;;;;;11.65;8.25;;;;;;;32.96;45.98;97771.63;5112907;28;20199;-57
2023/08/04 09:18:38;;;;;;;10.50;9.30;;;;;;;33.01;46.43;97790.41;5112727;28;20180;-57
2023/08/04 09:21:07;;;;;;;8.90;8.00;;;;;;;32.94;47.21;97767.56;5112763;28;20174;-57
2023/08/04 09:23:36;;;;;;;11.23;8.70;;;;;;;33.20;47.65;97794.22;5112619;28;20175;-57
2023/08/04 09:26:02;;;;;;;10.68;9.00;;;;;;;33.08;46.61;97796.31;5112961;28;20691;-57
2023/08/04 09:28:27;;;;;;;11.13;9.32;;;;;;;33.04;45.74;97779.13;5112604;28;20224;-56
2023/08/04 09:31:09;;;;;;;15.48;9.43;;;;;;;33.13;45.65;97788.31;5112490;28;20535;-56
2023/08/04 09:33:43;;;;;;;9.35;8.45;;;;;;;33.19;45.81;97784.56;5112302;28;20642;-58
2023/08/04 09:36:18;;;;;;;8.85;8.05;;;;;;;33.31;45.57;97782.47;5112480;28;20550;-56
2023/08/04 09:38:44;;;;;;;10.60;8.00;;;;;;;33.39;45.87;97784.63;5112753;28;20287;-58
2023/08/04 09:41:11;;;;;;;10.80;8.35;;;;;;;33.30;45.45;97758.59;5112017;27;20183;-56
2023/08/04 09:43:48;;;;;;;9.35;7.80;;;;;;;33.45;45.70;97764.00;5112160;28;20213;-56
2023/08/04 09:46:14;;;;;;;8.88;7.82;;;;;;;33.51;45.19;97760.25;5112101;28;20183;-56
2023/08/04 09:48:40;;;;;;;8.77;8.00;;;;;;;33.63;45.38;97756.22;5112525;28;20215;-56
2023/08/04 09:51:14;;;;;;;9.18;8.00;;;;;;;33.75;44.66;97748.72;5111896;28;20202;-57
2023/08/04 09:53:50;;;;;;;8.95;8.10;;;;;;;33.97;44.42;97768.09;5112196;27;20190;-57
2023/08/04 09:56:18;;;;;;;8.65;7.80;;;;;;;34.02;44.21;97760.03;5112307;28;20230;-56
2023/08/04 09:58:45;;;;;;;8.73;7.85;;;;;;;34.15;43.63;97759.47;5111757;28;20266;-56
2023/08/04 10:01:12;;;;;;;9.65;7.75;;;;;;;34.16;43.54;97753.03;5111715;28;20187;-56
2023/08/04 10:03:40;;;;;;;8.75;7.80;;;;;;;34.37;42.97;97764.56;5112029;27;20181;-57
2023/08/04 10:06:06;;;;;;;12.93;8.10;;;;;;;34.26;42.34;97725.38;5111823;28;20218;-57
2023/08/04 10:08:39;;;;;;;11.98;7.43;;;;;;;34.47;41.70;97740.38;5112026;28;20199;-55
2023/08/04 10:11:06;;;;;;;7.57;6.80;;;;;;;34.40;41.00;97726.41;5111935;28;20183;-56
2023/08/04 10:13:34;;;;;;;9.93;7.57;;;;;;;34.76;40.58;97754.81;5111757;28;20250;-57
2023/08/04 10:16:03;;;;;;;10.02;8.07;;;;;;;34.88;41.36;97750.75;5111717;28;20285;-57
2023/08/04 10:18:49;;;;;;;8.15;7.35;;;;;;;34.98;39.73;97748.00;5111896;28;20254;-56
2023/08/04 10:21:17;;;;;;;7.78;7.00;;;;;;;35.03;40.20;97739.91;5111832;28;20178;-57
2023/08/04 10:23:43;;;;;;;8.73;7.07;;;;;;;35.08;40.18;97710.28;5111708;28;20171;-57
2023/08/04 10:26:13;;;;;;;8.05;7.38;;;;;;;35.30;39.80;97724.19;5111880;28;20182;-56
2023/08/04 10:29:01;;;;;;;7.28;6.60;;;;;;;35.57;38.93;97739.88;5111668;28;20202;-57
2023/08/04 10:31:55;;;;;;;8.07;6.90;;;;;;;35.79;37.95;97738.38;5111574;28;20186;-57
2023/08/04 10:34:35;;;;;;;7.95;7.15;;;;;;;35.96;37.23;97746.06;5110339;28;20179;-56
2023/08/04 10:37:11;;;;;;;7.07;6.47;;;;;;;35.90;35.93;97712.97;5111468;28;20275;-56
2023/08/04 10:39:41;;;;;;;7.13;6.55;;;;;;;36.11;35.61;97740.53;5111675;28;20178;-57
2023/08/04 10:42:12;;;;;;;7.15;6.53;;;;;;;36.20;35.58;97731.56;5108894;28;20195;-56
2023/08/04 10:44:48;;;;;;;9.82;6.65;;;;;;;36.31;35.15;97732.28;5108977;28;20231;-57
2023/08/04 10:47:14;;;;;;;7.00;6.40;;;;;;;36.31;34.71;97702.63;5108872;28;20191;-57
2023/08/04 10:49:40;;;;;;;7.00;6.40;;;;;;;36.71;32.81;97735.34;5108974;28;20184;-57
2023/08/04 10:52:06;;;;;;;9.10;6.05;;;;;;;36.81;33.61;97689.38;5108853;28;20229;-56
2023/08/04 10:54:31;;;;;;;6.85;6.35;;;;;;;37.14;32.73;97712.72;5108975;28;20206;-58
2023/08/04 10:56:57;;;;;;;6.78;6.20;;;;;;;37.34;33.37;97716.97;5108789;28;20240;-57
2023/08/04 10:59:22;;;;;;;8.23;6.40;;;;;;;37.22;31.68;97693.16;5088407;28;20293;-57
2023/08/04 11:01:48;;;;;;;6.70;6.07;;;;;;;37.33;32.32;97700.00;5088382;28;20714;-56
2023/08/04 11:04:16;;;;;;;7.20;6.55;;;;;;;37.54;32.43;97698.59;5088281;28;20510;-57
2023/08/04 11:06:44;;;;;;;6.18;5.68;;;;;;;37.72;31.66;97691.56;5088192;28;20226;-56
2023/08/04 11:09:10;;;;;;;6.70;6.10;;;;;;;37.68;30.86;97664.34;5088462;28;20184;-57
2023/08/04 11:11:36;;;;;;;6.88;6.20;;;;;;;37.78;31.16;97660.69;5092085;28;20199;-57
2023/08/04 11:14:04;;;;;;;6.35;5.75;;;;;;;38.10;30.43;97687.72;5092374;28;20188;-56
2023/08/04 11:16:32;;;;;;;6.63;5.50;;;;;;;38.26;29.32;97686.28;5092305;28;20211;-57
2023/08/04 11:18:58;;;;;;;6.45;5.63;;;;;;;38.46;28.98;97667.03;5092265;28;20233;-56
2023/08/04 11:21:23;;;;;;;8.20;5.80;;;;;;;38.61;28.63;97680.22;5092374;28;20298;-57
2023/08/04 11:23:49;;;;;;;8.40;6.28;;;;;;;38.71;28.44;97661.06;5092166;28;20262;-57
2023/08/04 11:26:15;;;;;;;6.43;5.82;;;;;;;38.91;28.58;97675.00;5092085;28;20252;-56